Airfield :
LOGIN :

Register | Disclaimer

   EN    FR    IT 

 










Legend :    VFR   Marginal VFR   IFR   Intensive IFR   Very Intensive IFR
Visi :
Ceiling :
>= 8 km
>= 3000ft
5 to 8 km
1000 to 3000 ft
1500m to 5 km
500 to 1000 ft
800 to 1500m
200 to 500 ft
< 800m
< 200 ft
Symbols :   Thunderstorms  Fog  Heavy snow  Heavy precipitations  Wind > 20 kt
SIGMETs :     Misc.  Thunderstorms  Icing  Turbulence  Mountain Waves  Volcanic Ashes






- Airport Elevation : 784 ft
- IATA code : TZL


LQTZ - Tuzla

CURRENT METAR :
  • 211800Z 09004KT 9999 FEW050 14/10 Q1014

EXPIRED METARs :
  • 211730Z VRB03KT 9999 FEW050 17/08 Q1014
  • 211700Z VRB03KT 9999 FEW055 17/09 Q1014
  • 211630Z VRB04KT 9999 SCT055 19/09 Q1014
  • 211600Z 22004KT 9999 SCT055 19/09 Q1014
  • 211530Z 21004KT 130V260 9999 SCT055 19/09 Q1014

TAF COR TAF LQTZ
Valid from the 21 at 18:00 until the 22 at 18:00 UTC


211707Z 2118/2218 21005KT 9999 SCT045 TX20/2212Z TN12/2205Z
PROB40
TEMPO 2212/2218 RA



MET'MAP, your aeronautical weather chart ! - Copyright ORBIFLY December 2007 - Disclaimer

ORBIFLY MET'MAP TEAM :

Programming & Development : Alexandra Zaïnal
Concept & original design : Baudouin d'Aumeries
Assistance for programming : Marc-Olivier Méhu
Technical & hardware support : Manuel Goepfert

Contact : metmap@orbifly.com




SOURCES & CREDITS :

   NOAA